Time;durP1;ratioP1;P1;durP2;ratioP2;P2;SDS_P1;SDS_P2;PMS_P1;PMS_P2;Temp;Humidity;BMP_temperature;BMP_pressure;BME280_temperature;BME280_humidity;BME280_pressure;Samples;Min_cycle;Max_cycle;Signal;HPM_P1;HPM_P2
2023/11/28 00:02:12;;;;;;;1.77;1.20;;;8.90;99.90;;;;;;4974712;28;20023;-76
2023/11/28 00:04:38;;;;;;;1.70;1.00;;;8.90;99.90;;;;;;4973149;28;20035;-76
2023/11/28 00:07:04;;;;;;;1.20;1.10;;;8.90;99.90;;;;;;4972555;28;20409;-76
2023/11/28 00:09:29;;;;;;;1.00;1.00;;;8.90;99.90;;;;;;4988672;28;20044;-76
2023/11/28 00:11:55;;;;;;;1.10;1.10;;;8.90;99.90;;;;;;4971649;28;20031;-76
2023/11/28 00:14:20;;;;;;;1.20;1.10;;;8.90;99.90;;;;;;4972631;28;20109;-77
2023/11/28 00:16:46;;;;;;;4.30;1.10;;;8.90;99.90;;;;;;4972082;28;20613;-77
2023/11/28 00:19:11;;;;;;;1.35;1.10;;;8.90;99.90;;;;;;4972797;28;20019;-77
2023/11/28 00:21:37;;;;;;;1.23;0.98;;;8.90;99.90;;;;;;4972967;28;20035;-76
2023/11/28 00:24:03;;;;;;;0.65;0.65;;;8.90;99.90;;;;;;4971230;28;20023;-77
2023/11/28 00:26:28;;;;;;;3.53;1.02;;;8.80;99.90;;;;;;4970470;28;20033;-76
2023/11/28 00:28:54;;;;;;;1.95;1.00;;;8.80;99.90;;;;;;4972562;28;20027;-76
2023/11/28 00:31:20;;;;;;;0.77;0.77;;;8.90;99.90;;;;;;4972396;28;20026;-77
2023/11/28 00:33:47;;;;;;;5.78;0.90;;;8.80;99.90;;;;;;4971997;28;20027;-76
2023/11/28 00:36:15;;;;;;;1.05;0.90;;;8.90;99.90;;;;;;4972391;28;20030;-77
2023/11/28 00:38:41;;;;;;;0.75;0.75;;;8.80;99.90;;;;;;4971626;28;20047;-77
2023/11/28 00:41:07;;;;;;;0.70;0.70;;;8.90;99.90;;;;;;4973648;28;20050;-76
2023/11/28 00:43:32;;;;;;;3.05;0.80;;;8.90;99.90;;;;;;4972231;28;20548;-76
2023/11/28 00:45:58;;;;;;;1.02;0.85;;;8.90;99.90;;;;;;4971828;28;20070;-76
2023/11/28 00:48:23;;;;;;;0.70;0.70;;;8.80;99.90;;;;;;4972001;28;20037;-77
2023/11/28 00:50:50;;;;;;;0.93;0.90;;;8.90;99.90;;;;;;4972199;28;20019;-76
2023/11/28 00:53:15;;;;;;;1.00;0.90;;;8.90;99.90;;;;;;4971824;28;20106;-76
2023/11/28 00:55:41;;;;;;;3.20;1.10;;;8.90;99.90;;;;;;4970278;28;20224;-76
2023/11/28 00:58:06;;;;;;;4.43;0.90;;;8.90;99.90;;;;;;4971985;28;20517;-76
2023/11/28 01:00:32;;;;;;;0.80;0.80;;;8.90;99.90;;;;;;4973944;28;20117;-76
2023/11/28 01:02:59;;;;;;;0.70;0.70;;;8.90;99.90;;;;;;4970121;28;21232;-76
2023/11/28 01:05:25;;;;;;;0.82;0.82;;;8.90;99.90;;;;;;4970487;28;20416;-76
2023/11/28 01:07:50;;;;;;;1.05;0.80;;;8.90;99.90;;;;;;4971698;28;20019;-77
2023/11/28 01:10:16;;;;;;;0.98;0.80;;;8.90;99.90;;;;;;4970368;28;20022;-76
2023/11/28 01:12:42;;;;;;;2.35;0.90;;;8.90;99.90;;;;;;4968755;28;20021;-77
2023/11/28 01:15:08;;;;;;;1.83;1.10;;;8.90;99.90;;;;;;4971534;28;20059;-76
2023/11/28 01:17:33;;;;;;;0.80;0.80;;;8.90;99.90;;;;;;4968358;28;20106;-76
2023/11/28 01:19:59;;;;;;;0.70;0.70;;;8.90;99.90;;;;;;4971575;28;20150;-76
2023/11/28 01:22:25;;;;;;;0.98;0.90;;;8.90;99.90;;;;;;4971368;28;20022;-76
2023/11/28 01:24:50;;;;;;;1.02;0.85;;;8.90;99.90;;;;;;4968270;28;20041;-76
2023/11/28 01:27:16;;;;;;;0.88;0.88;;;8.90;99.90;;;;;;4970900;28;20034;-76
2023/11/28 01:29:41;;;;;;;0.70;0.70;;;8.90;99.90;;;;;;4971232;28;20026;-77
2023/11/28 01:32:07;;;;;;;0.80;0.80;;;8.90;99.90;;;;;;4971416;28;20066;-76
2023/11/28 01:34:32;;;;;;;0.80;0.80;;;8.90;99.90;;;;;;4974735;28;20126;-76
2023/11/28 01:36:58;;;;;;;1.30;1.00;;;8.90;99.90;;;;;;4970354;28;20023;-76
2023/11/28 01:39:24;;;;;;;0.88;0.88;;;8.90;99.90;;;;;;4971060;28;20073;-76
2023/11/28 01:41:49;;;;;;;0.80;0.80;;;8.90;99.90;;;;;;4970827;28;20518;-76
2023/11/28 01:44:15;;;;;;;0.90;0.90;;;8.90;99.90;;;;;;4971085;28;20019;-76
2023/11/28 01:46:42;;;;;;;0.75;0.70;;;8.90;99.90;;;;;;4969288;28;20110;-76
2023/11/28 01:49:08;;;;;;;0.73;0.73;;;8.90;99.90;;;;;;4967475;28;20033;-77
2023/11/28 01:51:36;;;;;;;0.77;0.77;;;8.90;99.90;;;;;;4971211;28;20428;-75
2023/11/28 01:54:03;;;;;;;0.82;0.82;;;8.90;99.90;;;;;;4968321;28;20411;-76
2023/11/28 01:56:30;;;;;;;3.03;0.85;;;8.90;99.90;;;;;;4970809;28;20081;-77
2023/11/28 01:58:56;;;;;;;0.63;0.63;;;8.90;99.90;;;;;;4969482;28;20459;-76
2023/11/28 02:01:22;;;;;;;0.93;0.93;;;8.80;99.90;;;;;;4970338;28;20031;-75
2023/11/28 02:03:51;;;;;;;0.93;0.90;;;8.80;99.90;;;;;;4968807;28;20523;-76
2023/11/28 02:06:17;;;;;;;3.40;0.77;;;8.80;99.90;;;;;;4970660;28;20606;-76
2023/11/28 02:08:45;;;;;;;0.73;0.73;;;8.90;99.90;;;;;;4971069;28;20054;-77
2023/11/28 02:11:10;;;;;;;0.93;0.82;;;8.90;99.90;;;;;;4970808;28;20019;-77
2023/11/28 02:13:36;;;;;;;0.70;0.70;;;8.90;99.90;;;;;;4970285;28;20105;-77
2023/11/28 02:16:15;;;;;;;9.43;2.13;;;8.90;99.90;;;;;;4970619;28;20022;-76
2023/11/28 02:18:42;;;;;;;0.68;0.68;;;8.80;99.90;;;;;;4970377;28;20026;-76
2023/11/28 02:21:12;;;;;;;0.98;0.88;;;8.90;99.90;;;;;;4970682;28;20029;-76
2023/11/28 02:23:38;;;;;;;0.90;0.90;;;8.90;99.90;;;;;;4970496;28;20026;-76
2023/11/28 02:26:23;;;;;;;4.22;0.70;;;8.80;99.90;;;;;;4975556;28;20029;-76
2023/11/28 02:28:49;;;;;;;0.55;0.55;;;8.80;99.90;;;;;;4969585;28;20026;-76
2023/11/28 02:31:14;;;;;;;0.60;0.60;;;8.80;99.90;;;;;;4966934;28;20058;-76
2023/11/28 02:33:40;;;;;;;0.70;0.70;;;8.80;99.90;;;;;;4970431;28;20031;-76
2023/11/28 02:36:06;;;;;;;0.80;0.80;;;8.80;99.90;;;;;;4970411;28;20027;-77
2023/11/28 02:38:32;;;;;;;0.70;0.70;;;8.80;99.90;;;;;;4970098;28;20026;-77
2023/11/28 02:40:57;;;;;;;0.70;0.70;;;8.80;99.90;;;;;;4969773;28;20081;-76
2023/11/28 02:43:23;;;;;;;2.88;0.70;;;8.80;99.90;;;;;;4970195;28;20455;-76
2023/11/28 02:45:48;;;;;;;6.22;0.90;;;8.80;99.90;;;;;;4969965;28;20492;-76
2023/11/28 02:48:14;;;;;;;1.08;0.88;;;8.80;99.90;;;;;;4972886;28;20141;-76
2023/11/28 02:50:39;;;;;;;0.70;0.70;;;8.80;99.90;;;;;;4971369;28;20037;-76
2023/11/28 02:53:05;;;;;;;0.75;0.73;;;8.80;99.90;;;;;;4978032;28;20027;-76
2023/11/28 02:55:31;;;;;;;2.20;0.80;;;8.80;99.90;;;;;;4974042;28;20023;-76
2023/11/28 02:57:58;;;;;;;0.65;0.65;;;8.90;99.90;;;;;;4972979;28;20074;-76
2023/11/28 03:00:24;;;;;;;0.77;0.77;;;8.80;99.90;;;;;;4973997;28;20023;-76
2023/11/28 03:02:49;;;;;;;1.15;0.90;;;8.90;99.90;;;;;;4972496;28;20061;-76
2023/11/28 03:05:15;;;;;;;0.90;0.90;;;8.80;99.90;;;;;;4973988;28;20026;-76
2023/11/28 03:07:41;;;;;;;0.70;0.70;;;8.90;99.90;;;;;;4972977;28;20058;-76
2023/11/28 03:10:07;;;;;;;0.70;0.70;;;8.80;99.90;;;;;;4973768;28;20053;-76
2023/11/28 03:12:33;;;;;;;0.70;0.70;;;8.80;99.90;;;;;;4972653;28;20109;-76
2023/11/28 03:14:58;;;;;;;2.35;1.05;;;8.80;99.90;;;;;;4972067;28;20366;-76
2023/11/28 03:17:24;;;;;;;0.75;0.75;;;8.90;99.90;;;;;;4973893;28;20543;-77
2023/11/28 03:19:50;;;;;;;0.60;0.60;;;8.80;99.90;;;;;;4967267;28;20109;-76
2023/11/28 03:22:15;;;;;;;0.82;0.82;;;8.90;99.90;;;;;;4974656;28;20151;-76
2023/11/28 03:24:43;;;;;;;3.35;0.73;;;8.90;99.90;;;;;;4973523;28;20031;-75
2023/11/28 03:27:08;;;;;;;0.88;0.80;;;8.90;99.90;;;;;;4973067;28;20023;-76
2023/11/28 03:29:34;;;;;;;0.63;0.63;;;8.90;99.90;;;;;;4973495;28;20034;-76
2023/11/28 03:32:00;;;;;;;0.77;0.77;;;8.90;99.90;;;;;;4972454;28;20026;-76
2023/11/28 03:34:26;;;;;;;0.70;0.70;;;8.90;99.90;;;;;;4973746;28;20403;-76
2023/11/28 03:36:51;;;;;;;0.60;0.60;;;8.90;99.90;;;;;;4973381;28;20023;-76
2023/11/28 03:39:17;;;;;;;0.70;0.70;;;8.90;99.90;;;;;;4972938;28;20510;-76
2023/11/28 03:41:46;;;;;;;0.77;0.70;;;8.80;99.90;;;;;;4973246;28;20102;-77
2023/11/28 03:44:11;;;;;;;0.68;0.68;;;8.90;99.90;;;;;;4972022;28;20054;-75
2023/11/28 03:46:37;;;;;;;0.70;0.70;;;8.80;99.90;;;;;;4972753;28;20121;-76
2023/11/28 03:49:03;;;;;;;0.70;0.70;;;8.90;99.90;;;;;;4972910;28;20077;-77
2023/11/28 03:51:29;;;;;;;0.77;0.77;;;8.90;99.90;;;;;;4972309;28;20037;-76
2023/11/28 03:53:55;;;;;;;1.40;0.80;;;8.90;99.90;;;;;;4972779;28;20027;-76
2023/11/28 03:56:21;;;;;;;0.70;0.70;;;8.80;99.90;;;;;;4972823;28;20022;-76
2023/11/28 03:58:47;;;;;;;0.82;0.80;;;8.90;99.90;;;;;;4973097;28;20019;-76
2023/11/28 04:01:13;;;;;;;0.73;0.73;;;8.80;99.90;;;;;;4972171;28;20030;-76
2023/11/28 04:03:38;;;;;;;0.88;0.88;;;8.80;99.90;;;;;;4971737;28;20034;-75
2023/11/28 04:06:04;;;;;;;0.65;0.65;;;8.90;99.90;;;;;;4976908;28;20027;-76
2023/11/28 04:08:30;;;;;;;0.68;0.68;;;8.80;99.90;;;;;;4972992;28;20392;-76
2023/11/28 04:10:55;;;;;;;3.22;1.00;;;8.80;99.90;;;;;;4972992;28;20030;-77
2023/11/28 04:13:21;;;;;;;0.82;0.82;;;8.80;99.90;;;;;;4972221;28;20030;-76
2023/11/28 04:15:46;;;;;;;0.93;0.90;;;8.80;99.90;;;;;;4972756;28;20031;-76
2023/11/28 04:18:12;;;;;;;1.15;0.80;;;8.80;99.90;;;;;;4975482;28;20019;-76
2023/11/28 04:20:38;;;;;;;0.93;0.93;;;8.80;99.90;;;;;;4972570;28;20027;-76
2023/11/28 04:23:05;;;;;;;0.88;0.88;;;8.80;99.90;;;;;;4963469;28;20029;-76
2023/11/28 04:25:31;;;;;;;0.93;0.93;;;8.80;99.90;;;;;;4968969;28;20081;-76
2023/11/28 04:27:56;;;;;;;1.88;1.30;;;8.80;99.90;;;;;;4972403;28;20015;-76
2023/11/28 04:30:22;;;;;;;1.10;1.00;;;8.80;99.90;;;;;;4972237;28;20302;-77
2023/11/28 04:32:47;;;;;;;1.67;1.30;;;8.80;99.90;;;;;;4972371;28;20034;-76
2023/11/28 04:35:13;;;;;;;1.10;1.00;;;8.80;99.90;;;;;;4970688;28;20720;-76
2023/11/28 04:37:38;;;;;;;1.70;1.27;;;8.80;99.90;;;;;;4971880;28;20023;-76
2023/11/28 04:40:05;;;;;;;1.60;1.40;;;8.80;99.90;;;;;;4971036;28;20078;-76
2023/11/28 04:42:31;;;;;;;1.63;1.45;;;8.80;99.90;;;;;;4972404;28;20496;-76
2023/11/28 04:44:57;;;;;;;2.40;1.20;;;8.80;99.90;;;;;;4971866;28;20154;-76
2023/11/28 04:47:22;;;;;;;1.17;1.13;;;8.80;99.90;;;;;;4971960;28;20118;-77
2023/11/28 04:49:48;;;;;;;2.03;1.77;;;8.90;99.90;;;;;;4971899;28;20083;-76
2023/11/28 04:52:14;;;;;;;1.20;1.15;;;8.80;99.90;;;;;;4971788;28;20026;-76
2023/11/28 04:54:39;;;;;;;1.58;1.45;;;8.80;99.90;;;;;;4972099;28;20035;-76
2023/11/28 04:57:05;;;;;;;3.40;1.50;;;8.80;99.90;;;;;;4970314;28;20119;-76
2023/11/28 04:59:31;;;;;;;3.17;1.42;;;8.80;99.90;;;;;;4971710;28;20146;-76
2023/11/28 05:01:57;;;;;;;2.17;1.48;;;8.80;99.90;;;;;;4970780;28;20034;-77
2023/11/28 05:04:22;;;;;;;1.38;1.27;;;8.80;99.90;;;;;;4971851;28;20033;-76
2023/11/28 05:06:48;;;;;;;2.03;1.70;;;8.80;99.90;;;;;;4966341;28;20045;-76
2023/11/28 05:09:17;;;;;;;2.60;1.73;;;8.80;99.90;;;;;;4971769;28;20018;-76
2023/11/28 05:11:46;;;;;;;2.70;1.80;;;8.80;99.90;;;;;;4968351;28;20488;-76
2023/11/28 05:14:12;;;;;;;1.92;1.40;;;8.80;99.90;;;;;;4970914;28;20019;-76
2023/11/28 05:16:37;;;;;;;2.63;1.60;;;8.80;99.90;;;;;;4971311;28;20428;-76
2023/11/28 05:19:03;;;;;;;1.40;1.30;;;8.80;99.90;;;;;;4971138;28;20026;-77
2023/11/28 05:21:29;;;;;;;2.72;1.48;;;8.80;99.90;;;;;;4969209;28;20050;-77
2023/11/28 05:23:54;;;;;;;4.07;1.75;;;8.80;99.90;;;;;;4971016;28;20019;-77
2023/11/28 05:26:20;;;;;;;1.55;1.45;;;8.80;99.90;;;;;;4971532;28;20479;-76
2023/11/28 05:28:47;;;;;;;1.50;1.40;;;8.80;99.90;;;;;;4974915;28;20566;-77
2023/11/28 05:31:13;;;;;;;4.20;1.42;;;8.80;99.90;;;;;;4970949;28;20026;-76
2023/11/28 05:33:39;;;;;;;5.50;1.40;;;8.80;99.90;;;;;;4971331;28;20027;-76
2023/11/28 05:36:07;;;;;;;1.73;1.33;;;8.80;99.90;;;;;;4971192;28;20073;-76
2023/11/28 05:38:32;;;;;;;1.60;1.48;;;8.80;99.90;;;;;;4968514;28;20035;-76
2023/11/28 05:40:59;;;;;;;2.38;1.60;;;8.80;99.90;;;;;;4968654;28;20022;-76
2023/11/28 05:43:28;;;;;;;1.20;1.10;;;8.80;99.90;;;;;;4971769;28;20027;-76
2023/11/28 05:45:53;;;;;;;1.40;1.25;;;8.80;99.90;;;;;;4982282;28;20034;-76
2023/11/28 05:48:19;;;;;;;1.20;1.08;;;8.80;99.90;;;;;;4967448;28;20408;-76
2023/11/28 05:50:44;;;;;;;1.08;1.00;;;8.80;99.90;;;;;;4969049;28;20058;-76
2023/11/28 05:53:10;;;;;;;1.55;1.30;;;8.80;99.90;;;;;;4968575;28;20054;-77
2023/11/28 05:55:36;;;;;;;1.98;1.10;;;8.80;99.90;;;;;;4969543;28;20022;-77
2023/11/28 05:58:02;;;;;;;1.00;1.00;;;8.80;99.90;;;;;;4984575;28;20019;-76
2023/11/28 06:00:27;;;;;;;1.00;1.00;;;8.80;99.90;;;;;;4969754;28;20035;-77
2023/11/28 06:02:53;;;;;;;1.05;1.00;;;8.80;99.90;;;;;;4970721;28;20023;-76
2023/11/28 06:05:20;;;;;;;1.25;1.00;;;8.80;99.90;;;;;;4970720;28;20076;-76
2023/11/28 06:07:45;;;;;;;1.10;1.00;;;8.80;99.90;;;;;;4970508;28;20484;-77
2023/11/28 06:10:11;;;;;;;1.00;0.98;;;8.80;99.90;;;;;;4970713;28;20027;-76
2023/11/28 06:12:37;;;;;;;3.95;1.00;;;8.90;99.90;;;;;;4970720;28;20499;-76
2023/11/28 06:15:06;;;;;;;1.60;1.05;;;8.90;99.90;;;;;;4970384;28;20110;-77
2023/11/28 06:17:32;;;;;;;0.80;0.80;;;8.90;99.90;;;;;;4969466;28;20692;-76
2023/11/28 06:19:58;;;;;;;1.40;1.00;;;8.80;99.90;;;;;;4970918;28;20026;-76
2023/11/28 06:22:23;;;;;;;0.80;0.80;;;8.80;99.90;;;;;;4970484;28;20123;-76
2023/11/28 06:24:49;;;;;;;1.05;0.80;;;8.90;99.90;;;;;;4969631;28;20525;-76
2023/11/28 06:27:14;;;;;;;1.98;0.90;;;8.90;99.90;;;;;;4971525;28;20149;-76
2023/11/28 06:29:40;;;;;;;0.90;0.85;;;8.90;99.90;;;;;;4969394;28;20049;-75
2023/11/28 06:32:06;;;;;;;0.77;0.77;;;8.80;99.90;;;;;;4970376;28;20484;-76
2023/11/28 06:34:32;;;;;;;1.10;1.00;;;8.80;99.90;;;;;;4966993;28;20046;-79
2023/11/28 06:36:57;;;;;;;1.00;0.90;;;8.80;99.90;;;;;;4968896;28;20026;-77
2023/11/28 06:39:23;;;;;;;0.70;0.70;;;8.80;99.90;;;;;;4970755;28;20027;-76
2023/11/28 06:41:49;;;;;;;0.75;0.75;;;8.80;99.90;;;;;;4968515;28;20380;-76
2023/11/28 06:44:18;;;;;;;0.60;0.60;;;8.80;99.90;;;;;;4970401;28;20123;-76
2023/11/28 06:46:46;;;;;;;1.00;0.90;;;8.80;99.90;;;;;;4973181;28;20034;-76
2023/11/28 06:49:12;;;;;;;0.82;0.82;;;8.80;99.90;;;;;;4967796;28;20027;-77
2023/11/28 06:51:38;;;;;;;0.82;0.80;;;8.80;99.90;;;;;;4969479;28;20118;-76
2023/11/28 06:54:03;;;;;;;2.47;0.70;;;8.80;99.90;;;;;;4967756;28;20037;-76
2023/11/28 06:56:29;;;;;;;0.85;0.80;;;8.80;99.90;;;;;;4970273;28;20023;-75
2023/11/28 06:58:55;;;;;;;2.17;0.85;;;8.80;99.90;;;;;;4970342;28;20028;-76
2023/11/28 07:01:21;;;;;;;0.93;0.85;;;8.80;99.90;;;;;;4970128;28;20074;-77
2023/11/28 07:03:47;;;;;;;0.68;0.68;;;8.80;99.90;;;;;;4970479;28;20030;-76
2023/11/28 07:06:12;;;;;;;1.13;0.82;;;8.80;99.90;;;;;;4980117;28;20026;-76
2023/11/28 07:08:38;;;;;;;3.97;0.82;;;8.80;99.90;;;;;;4970075;28;20034;-76
2023/11/28 07:11:04;;;;;;;1.15;0.80;;;8.90;99.90;;;;;;4966442;28;20046;-76
2023/11/28 07:13:29;;;;;;;0.70;0.70;;;8.80;99.90;;;;;;4970762;28;20125;-76
2023/11/28 07:15:55;;;;;;;1.58;1.00;;;8.90;99.90;;;;;;4969756;28;20023;-76
2023/11/28 07:18:20;;;;;;;1.17;0.82;;;8.80;99.90;;;;;;4969972;28;20399;-76
2023/11/28 07:20:50;;;;;;;0.82;0.82;;;8.80;99.90;;;;;;4969406;28;20023;-76
2023/11/28 07:23:17;;;;;;;0.75;0.75;;;8.90;99.90;;;;;;4968302;28;20019;-77
2023/11/28 07:25:43;;;;;;;0.73;0.73;;;8.80;99.90;;;;;;4970299;28;20511;-76
2023/11/28 07:28:09;;;;;;;0.68;0.60;;;8.90;99.90;;;;;;4970136;28;20026;-76
2023/11/28 07:30:35;;;;;;;1.27;1.00;;;8.90;99.90;;;;;;4969755;28;20023;-76
2023/11/28 07:33:00;;;;;;;0.85;0.85;;;8.90;99.90;;;;;;4968615;28;20098;-76
2023/11/28 07:35:26;;;;;;;0.98;0.90;;;8.90;99.90;;;;;;4964675;28;20515;-76
2023/11/28 07:37:51;;;;;;;1.17;0.80;;;8.90;99.90;;;;;;4972971;28;20097;-76
2023/11/28 07:40:17;;;;;;;0.95;0.77;;;8.90;99.90;;;;;;4973642;28;20229;-77
2023/11/28 07:42:42;;;;;;;0.90;0.90;;;8.90;99.90;;;;;;4972514;28;20101;-77
2023/11/28 07:45:08;;;;;;;0.70;0.70;;;8.90;99.90;;;;;;4973221;28;20081;-76
2023/11/28 07:47:34;;;;;;;0.80;0.80;;;8.90;99.90;;;;;;4977259;28;20078;-77
2023/11/28 07:49:59;;;;;;;0.80;0.80;;;8.90;99.90;;;;;;4972988;28;20027;-76
2023/11/28 07:52:25;;;;;;;3.05;0.80;;;9.00;99.90;;;;;;4973100;28;20022;-77
2023/11/28 07:54:50;;;;;;;0.60;0.60;;;9.00;99.90;;;;;;4972982;28;20038;-75
2023/11/28 07:57:16;;;;;;;0.75;0.75;;;9.00;99.90;;;;;;4972908;28;20033;-76
2023/11/28 07:59:46;;;;;;;1.10;0.60;;;9.00;99.90;;;;;;4973209;28;20090;-76
2023/11/28 08:02:14;;;;;;;2.28;0.68;;;9.00;99.90;;;;;;4973038;28;20026;-71
2023/11/28 08:04:40;;;;;;;8.57;1.00;;;12.10;99.90;;;;;;4972558;28;20089;-72
2023/11/28 08:07:06;;;;;;;11.60;1.05;;;13.10;99.90;;;;;;4972238;28;20436;-68
2023/11/28 08:09:31;;;;;;;5.68;0.70;;;13.10;99.90;;;;;;4973073;28;20031;-70
2023/11/28 08:11:57;;;;;;;0.82;0.65;;;12.90;99.90;;;;;;4972612;28;20038;-72
2023/11/28 08:14:22;;;;;;;6.88;2.05;;;12.90;99.90;;;;;;4972515;28;20029;-71
2023/11/28 08:16:48;;;;;;;2.70;0.60;;;12.90;99.90;;;;;;4969916;28;20027;-72
2023/11/28 08:19:14;;;;;;;0.73;0.50;;;13.00;99.90;;;;;;4971074;28;20077;-72
2023/11/28 08:21:39;;;;;;;0.40;0.40;;;12.90;99.90;;;;;;4972812;28;20027;-77
2023/11/28 08:24:05;;;;;;;4.10;0.70;;;12.60;99.90;;;;;;4965599;28;20023;-76
2023/11/28 08:26:31;;;;;;;1.23;0.60;;;11.30;99.90;;;;;;4974215;28;20034;-76
2023/11/28 08:28:57;;;;;;;0.70;0.70;;;10.40;99.90;;;;;;4969654;28;20027;-76
2023/11/28 08:31:23;;;;;;;1.13;0.70;;;10.00;99.90;;;;;;4969228;28;20055;-76
2023/11/28 08:33:48;;;;;;;1.45;0.68;;;9.70;99.90;;;;;;4972226;28;20059;-77
2023/11/28 08:36:14;;;;;;;3.05;0.68;;;9.60;99.90;;;;;;4972066;28;20045;-76
2023/11/28 08:38:39;;;;;;;1.13;0.75;;;9.50;99.90;;;;;;4972010;28;20162;-76
2023/11/28 08:41:06;;;;;;;1.05;0.70;;;9.40;99.90;;;;;;4971299;28;20023;-76
2023/11/28 08:43:32;;;;;;;0.95;0.70;;;9.40;99.90;;;;;;4971959;28;20109;-75
2023/11/28 08:45:57;;;;;;;0.85;0.60;;;9.30;99.90;;;;;;4970741;28;20050;-76
2023/11/28 08:48:23;;;;;;;4.07;0.70;;;9.30;99.90;;;;;;4976615;28;20045;-76
2023/11/28 08:50:49;;;;;;;0.43;0.43;;;9.30;99.90;;;;;;4974142;28;20033;-77
2023/11/28 08:53:14;;;;;;;1.83;0.70;;;9.30;99.90;;;;;;4971977;28;20026;-76
2023/11/28 08:55:40;;;;;;;0.43;0.43;;;9.30;99.90;;;;;;4967442;28;20046;-76
2023/11/28 08:58:05;;;;;;;1.55;0.77;;;9.30;99.90;;;;;;4965934;28;20094;-74
2023/11/28 09:00:31;;;;;;;0.63;0.50;;;9.20;99.90;;;;;;4974121;28;20648;-75
2023/11/28 09:02:56;;;;;;;0.50;0.50;;;9.20;99.90;;;;;;4971171;28;20645;-76
2023/11/28 09:05:22;;;;;;;0.40;0.40;;;9.20;99.90;;;;;;4970515;28;20831;-77
2023/11/28 09:07:49;;;;;;;0.45;0.45;;;9.20;99.90;;;;;;4970880;28;20023;-77
2023/11/28 09:10:15;;;;;;;0.40;0.40;;;9.20;99.90;;;;;;4971266;28;20498;-76
2023/11/28 09:12:46;;;;;;;4.18;0.60;;;9.20;99.90;;;;;;4970470;28;20475;-75
2023/11/28 09:15:16;;;;;;;0.73;0.73;;;9.20;99.90;;;;;;4969175;28;20679;-76
2023/11/28 09:17:42;;;;;;;0.95;0.65;;;9.20;99.90;;;;;;4986035;28;20054;-76
2023/11/28 09:20:08;;;;;;;0.60;0.60;;;9.20;99.90;;;;;;4970437;28;20101;-76
2023/11/28 09:22:34;;;;;;;1.08;0.88;;;9.20;99.90;;;;;;4969743;28;20773;-76
2023/11/28 09:25:00;;;;;;;0.73;0.60;;;9.20;99.90;;;;;;4969694;28;20030;-76
2023/11/28 09:27:25;;;;;;;0.60;0.60;;;9.20;99.90;;;;;;4971163;28;20019;-76
2023/11/28 09:29:51;;;;;;;0.85;0.60;;;9.10;99.90;;;;;;4970583;28;20082;-76
2023/11/28 09:32:16;;;;;;;0.50;0.50;;;9.10;99.90;;;;;;4971254;28;20042;-76
2023/11/28 09:34:43;;;;;;;1.15;0.60;;;9.10;99.90;;;;;;4965024;28;20035;-76
2023/11/28 09:37:10;;;;;;;0.52;0.52;;;9.10;99.90;;;;;;4973780;28;20018;-76
2023/11/28 09:39:36;;;;;;;0.50;0.50;;;9.10;99.90;;;;;;4967480;28;20410;-75
2023/11/28 09:42:06;;;;;;;0.60;0.60;;;9.10;99.90;;;;;;4968621;28;20023;-76
2023/11/28 09:44:34;;;;;;;0.55;0.55;;;9.10;99.90;;;;;;4969387;28;20084;-76
2023/11/28 09:47:06;;;;;;;0.88;0.88;;;9.20;99.90;;;;;;4974214;28;20026;-76
2023/11/28 09:49:38;;;;;;;0.82;0.60;;;9.10;99.90;;;;;;4972338;28;20038;-77
2023/11/28 09:52:05;;;;;;;0.85;0.60;;;9.10;99.90;;;;;;4969802;28;20027;-76
2023/11/28 09:54:31;;;;;;;1.63;0.90;;;9.20;99.90;;;;;;4969710;28;20528;-75
2023/11/28 09:56:57;;;;;;;0.50;0.50;;;9.20;99.90;;;;;;4969157;28;20026;-76
2023/11/28 09:59:25;;;;;;;0.63;0.63;;;9.20;99.90;;;;;;4972512;28;20026;-76
2023/11/28 10:01:51;;;;;;;0.75;0.75;;;9.10;99.90;;;;;;4969376;28;20574;-75
2023/11/28 10:04:21;;;;;;;2.67;0.60;;;9.10;99.90;;;;;;4969012;28;20031;-77
2023/11/28 10:06:49;;;;;;;1.88;0.68;;;9.20;99.90;;;;;;4969465;28;20030;-76
2023/11/28 10:09:16;;;;;;;0.68;0.68;;;9.20;99.90;;;;;;4966708;28;20027;-76
2023/11/28 10:11:43;;;;;;;0.95;0.70;;;9.20;99.90;;;;;;4967183;28;20038;-76
2023/11/28 10:14:09;;;;;;;1.27;0.82;;;9.10;99.90;;;;;;4969224;28;20035;-76
2023/11/28 10:16:46;;;;;;;0.70;0.70;;;9.10;99.90;;;;;;4969078;28;20037;-76
2023/11/28 10:19:12;;;;;;;0.50;0.50;;;9.20;99.90;;;;;;4967348;28;20105;-75
2023/11/28 10:21:41;;;;;;;0.73;0.70;;;9.10;99.90;;;;;;4965451;28;20042;-76
2023/11/28 10:24:11;;;;;;;0.55;0.55;;;9.20;99.90;;;;;;4969268;28;20033;-76
2023/11/28 10:26:37;;;;;;;0.70;0.70;;;9.10;99.90;;;;;;4971256;28;20126;-75
2023/11/28 10:29:06;;;;;;;0.63;0.63;;;9.10;99.90;;;;;;4972240;28;20499;-77
2023/11/28 10:31:41;;;;;;;2.28;0.50;;;9.10;99.90;;;;;;4970810;28;20117;-75
2023/11/28 10:34:10;;;;;;;1.45;0.82;;;10.20;99.90;;;;;;4968386;28;20033;-75
2023/11/28 10:36:40;;;;;;;3.75;1.00;;;11.50;99.90;;;;;;4967106;28;20031;-76
2023/11/28 10:39:08;;;;;;;;;;;10.30;99.90;;;;;;4969110;28;20018;-75
2023/11/28 10:41:34;;;;;;;2.47;0.75;;;9.80;99.90;;;;;;4966532;28;19917;-76
2023/11/28 10:43:59;;;;;;;0.75;0.63;;;9.50;99.90;;;;;;4967761;28;20023;-76
2023/11/28 10:46:27;;;;;;;1.52;0.75;;;9.40;99.90;;;;;;4966044;28;20022;-76
2023/11/28 10:48:53;;;;;;;0.65;0.65;;;9.30;99.90;;;;;;4967544;28;20082;-76
2023/11/28 10:51:20;;;;;;;3.42;0.88;;;9.20;99.90;;;;;;4968771;28;20031;-76
2023/11/28 10:53:48;;;;;;;1.10;1.00;;;9.20;99.90;;;;;;4968488;28;20023;-75
2023/11/28 10:56:17;;;;;;;0.88;0.70;;;9.20;99.90;;;;;;4966666;28;20397;-75
2023/11/28 10:58:46;;;;;;;2.63;0.90;;;9.20;99.90;;;;;;4969211;28;20027;-76
2023/11/28 11:01:13;;;;;;;0.70;0.70;;;9.20;99.90;;;;;;4967422;28;20101;-76
2023/11/28 11:03:39;;;;;;;1.23;0.70;;;9.20;99.90;;;;;;4969108;28;20106;-76
2023/11/28 11:06:06;;;;;;;1.67;0.60;;;9.20;99.90;;;;;;4965895;28;20030;-76
2023/11/28 11:08:33;;;;;;;0.70;0.70;;;9.20;99.90;;;;;;4968894;28;20053;-76
2023/11/28 11:11:00;;;;;;;1.38;0.80;;;9.20;99.90;;;;;;4970684;28;20042;-76
2023/11/28 11:14:03;;;;;;;0.82;0.82;;;9.20;99.90;;;;;;4971958;28;20069;-75
2023/11/28 11:16:51;;;;;;;1.48;0.70;;;9.20;99.90;;;;;;4963061;28;20046;-76
2023/11/28 11:19:18;;;;;;;4.03;0.52;;;9.10;99.90;;;;;;4969099;28;20081;-75
2023/11/28 11:21:51;;;;;;;0.88;0.43;;;9.10;99.90;;;;;;4972715;28;20027;-76
2023/11/28 11:24:19;;;;;;;0.70;0.70;;;9.10;99.90;;;;;;4970117;28;20086;-75
2023/11/28 11:26:46;;;;;;;0.68;0.57;;;9.10;99.90;;;;;;4974799;28;20035;-76
2023/11/28 11:29:24;;;;;;;0.70;0.70;;;9.10;99.90;;;;;;4972054;28;20041;-75
2023/11/28 11:31:51;;;;;;;0.70;0.70;;;9.10;99.90;;;;;;4985393;28;20443;-75
2023/11/28 11:34:37;;;;;;;1.55;0.80;;;9.10;99.90;;;;;;4971801;28;20025;-76
2023/11/28 11:37:13;;;;;;;1.05;0.65;;;9.10;99.90;;;;;;4970630;28;20093;-76
2023/11/28 11:39:44;;;;;;;0.90;0.73;;;9.10;99.90;;;;;;4969204;28;20023;-76
2023/11/28 11:42:17;;;;;;;1.00;0.80;;;9.10;99.90;;;;;;4967051;28;20025;-76
2023/11/28 11:44:49;;;;;;;0.60;0.60;;;9.10;99.90;;;;;;4974056;28;20026;-76
2023/11/28 11:47:20;;;;;;;0.70;0.70;;;9.10;99.90;;;;;;4984811;28;20121;-76
2023/11/28 11:49:46;;;;;;;4.57;0.77;;;9.10;99.90;;;;;;4970071;28;20090;-76
2023/11/28 11:52:14;;;;;;;0.75;0.75;;;9.10;99.90;;;;;;4976142;28;20037;-74
2023/11/28 11:54:45;;;;;;;0.77;0.77;;;9.10;99.90;;;;;;4971926;28;20058;-77
2023/11/28 11:57:12;;;;;;;0.77;0.77;;;9.10;99.90;;;;;;4969113;28;20034;-76
2023/11/28 11:59:40;;;;;;;3.08;1.00;;;9.10;99.90;;;;;;4972020;28;20628;-75
2023/11/28 12:02:06;;;;;;;1.95;0.65;;;9.10;99.90;;;;;;4969166;28;20384;-76
2023/11/28 12:04:32;;;;;;;0.73;0.70;;;9.10;99.90;;;;;;4970021;28;20034;-75
2023/11/28 12:07:06;;;;;;;1.30;0.77;;;9.10;99.90;;;;;;4971803;28;20038;-75
2023/11/28 12:09:33;;;;;;;1.30;0.90;;;9.10;99.90;;;;;;4969992;28;20046;-75
2023/11/28 12:11:59;;;;;;;3.20;0.80;;;9.10;99.90;;;;;;4971523;28;20026;-76
2023/11/28 12:14:25;;;;;;;0.98;0.95;;;9.10;99.90;;;;;;4973963;28;20025;-76
2023/11/28 12:16:52;;;;;;;1.00;0.90;;;9.10;99.90;;;;;;4973316;28;20521;-76
2023/11/28 12:19:18;;;;;;;0.95;0.90;;;9.10;99.90;;;;;;4975026;28;20217;-75
2023/11/28 12:21:43;;;;;;;0.65;0.65;;;9.10;99.90;;;;;;4971924;28;20038;-76
2023/11/28 12:24:09;;;;;;;3.85;0.93;;;9.10;99.90;;;;;;4970914;28;20026;-75
2023/11/28 12:26:35;;;;;;;2.28;0.90;;;9.10;99.90;;;;;;4968898;28;20114;-76
2023/11/28 12:29:01;;;;;;;3.42;1.10;;;9.10;99.90;;;;;;4970935;28;20569;-75
2023/11/28 12:31:28;;;;;;;0.98;0.90;;;9.10;99.90;;;;;;4970694;28;20086;-76
2023/11/28 12:33:54;;;;;;;1.13;0.90;;;9.10;99.90;;;;;;4971283;28;20031;-75
2023/11/28 12:36:25;;;;;;;0.70;0.70;;;9.10;99.90;;;;;;4969434;28;20019;-76
2023/11/28 12:38:52;;;;;;;1.83;1.02;;;9.10;99.90;;;;;;4968687;28;20439;-76
2023/11/28 12:41:18;;;;;;;2.05;1.00;;;9.10;99.90;;;;;;4970018;28;20520;-75
2023/11/28 12:43:44;;;;;;;1.65;0.90;;;9.10;99.90;;;;;;4971102;28;20026;-75
2023/11/28 12:46:09;;;;;;;0.93;0.80;;;9.10;99.90;;;;;;4968950;28;20854;-76
2023/11/28 12:48:35;;;;;;;0.77;0.77;;;9.10;99.90;;;;;;4971273;28;20775;-76
2023/11/28 12:51:02;;;;;;;1.25;1.00;;;9.10;99.90;;;;;;4969431;28;20071;-74
2023/11/28 12:53:28;;;;;;;0.90;0.90;;;9.10;99.90;;;;;;4969360;28;20032;-76
2023/11/28 12:55:56;;;;;;;0.85;0.70;;;9.10;99.90;;;;;;4970597;28;20566;-75